sensor_id;sensor_type;location;lat;lon;timestamp;pressure;altitude;pressure_sealevel;temperature;humidity
4449;BME280;2237;51.870;6.160;2024-03-23T00:56:13;100864.16;;;10.65;100.00
4449;BME280;2237;51.870;6.160;2024-03-23T00:58:38;100871.09;;;10.66;100.00
4449;BME280;2237;51.870;6.160;2024-03-23T01:01:04;100860.69;;;10.66;100.00
4449;BME280;2237;51.870;6.160;2024-03-23T01:03:30;100859.81;;;10.66;100.00
4449;BME280;2237;51.870;6.160;2024-03-23T01:06:00;100857.25;;;10.64;100.00
4449;BME280;2237;51.870;6.160;2024-03-23T01:08:25;100847.72;;;10.63;100.00
4449;BME280;2237;51.870;6.160;2024-03-23T01:10:58;100853.00;;;10.62;100.00
4449;BME280;2237;51.870;6.160;2024-03-23T01:13:24;100865.50;;;10.45;100.00
4449;BME280;2237;51.870;6.160;2024-03-23T01:15:51;100867.53;;;10.31;100.00
4449;BME280;2237;51.870;6.160;2024-03-23T01:18:21;100860.81;;;10.19;100.00
4449;BME280;2237;51.870;6.160;2024-03-23T01:20:47;100861.78;;;10.15;100.00
4449;BME280;2237;51.870;6.160;2024-03-23T01:23:12;100858.47;;;10.07;100.00
4449;BME280;2237;51.870;6.160;2024-03-23T01:25:38;100854.34;;;9.95;100.00
4449;BME280;2237;51.870;6.160;2024-03-23T01:28:04;100851.19;;;9.78;100.00
4449;BME280;2237;51.870;6.160;2024-03-23T01:30:32;100855.66;;;9.72;100.00
4449;BME280;2237;51.870;6.160;2024-03-23T01:32:57;100857.59;;;9.60;100.00
4449;BME280;2237;51.870;6.160;2024-03-23T01:35:23;100855.94;;;9.55;100.00
4449;BME280;2237;51.870;6.160;2024-03-23T01:37:48;100842.88;;;9.59;100.00
4449;BME280;2237;51.870;6.160;2024-03-23T01:40:16;100835.78;;;9.68;100.00
4449;BME280;2237;51.870;6.160;2024-03-23T01:42:42;100841.69;;;9.76;100.00
4449;BME280;2237;51.870;6.160;2024-03-23T01:45:08;100825.91;;;9.85;100.00
4449;BME280;2237;51.870;6.160;2024-03-23T01:47:35;100827.91;;;9.72;100.00
4449;BME280;2237;51.870;6.160;2024-03-23T01:50:01;100844.81;;;9.48;100.00
4449;BME280;2237;51.870;6.160;2024-03-23T01:52:26;100844.31;;;9.28;100.00
4449;BME280;2237;51.870;6.160;2024-03-23T01:54:53;100835.53;;;9.32;100.00
4449;BME280;2237;51.870;6.160;2024-03-23T01:57:20;100829.53;;;9.30;100.00
4449;BME280;2237;51.870;6.160;2024-03-23T01:59:46;100825.09;;;9.35;100.00
4449;BME280;2237;51.870;6.160;2024-03-23T02:02:12;100826.81;;;9.36;100.00
4449;BME280;2237;51.870;6.160;2024-03-23T02:04:38;100826.25;;;9.19;100.00
4449;BME280;2237;51.870;6.160;2024-03-23T02:07:05;100824.28;;;9.32;100.00
4449;BME280;2237;51.870;6.160;2024-03-23T02:09:31;100823.41;;;9.34;100.00
4449;BME280;2237;51.870;6.160;2024-03-23T02:11:57;100821.69;;;9.32;100.00
4449;BME280;2237;51.870;6.160;2024-03-23T02:14:23;100819.91;;;9.35;100.00
4449;BME280;2237;51.870;6.160;2024-03-23T02:16:49;100812.09;;;9.35;100.00
4449;BME280;2237;51.870;6.160;2024-03-23T02:19:14;100796.50;;;9.37;100.00
4449;BME280;2237;51.870;6.160;2024-03-23T02:21:40;100787.03;;;9.34;100.00
4449;BME280;2237;51.870;6.160;2024-03-23T02:24:05;100791.19;;;9.43;100.00
4449;BME280;2237;51.870;6.160;2024-03-23T02:26:31;100782.47;;;9.45;100.00
4449;BME280;2237;51.870;6.160;2024-03-23T02:28:57;100786.38;;;9.20;100.00
4449;BME280;2237;51.870;6.160;2024-03-23T02:31:22;100795.94;;;9.18;100.00
4449;BME280;2237;51.870;6.160;2024-03-23T02:33:48;100797.81;;;9.10;100.00
4449;BME280;2237;51.870;6.160;2024-03-23T02:36:14;100799.56;;;9.11;100.00
4449;BME280;2237;51.870;6.160;2024-03-23T02:38:39;100802.81;;;9.22;100.00
4449;BME280;2237;51.870;6.160;2024-03-23T02:41:05;100810.38;;;9.37;100.00
4449;BME280;2237;51.870;6.160;2024-03-23T02:43:31;100793.69;;;9.47;100.00
4449;BME280;2237;51.870;6.160;2024-03-23T02:45:57;100798.75;;;9.55;100.00
4449;BME280;2237;51.870;6.160;2024-03-23T02:48:22;100784.97;;;9.50;100.00
4449;BME280;2237;51.870;6.160;2024-03-23T02:50:49;100793.06;;;9.35;100.00
4449;BME280;2237;51.870;6.160;2024-03-23T02:53:14;100779.19;;;9.37;100.00
4449;BME280;2237;51.870;6.160;2024-03-23T02:55:40;100792.84;;;9.47;100.00
4449;BME280;2237;51.870;6.160;2024-03-23T02:58:05;100795.69;;;9.33;100.00
4449;BME280;2237;51.870;6.160;2024-03-23T03:00:31;100789.72;;;9.28;100.00
4449;BME280;2237;51.870;6.160;2024-03-23T03:02:57;100796.00;;;9.15;100.00
4449;BME280;2237;51.870;6.160;2024-03-23T03:05:22;100794.94;;;9.27;100.00
4449;BME280;2237;51.870;6.160;2024-03-23T03:07:48;100797.47;;;9.31;100.00
4449;BME280;2237;51.870;6.160;2024-03-23T03:10:13;100794.19;;;9.20;100.00
4449;BME280;2237;51.870;6.160;2024-03-23T03:12:39;100794.47;;;9.05;100.00
4449;BME280;2237;51.870;6.160;2024-03-23T03:15:05;100794.38;;;9.11;100.00
4449;BME280;2237;51.870;6.160;2024-03-23T03:17:31;100796.19;;;9.04;100.00
4449;BME280;2237;51.870;6.160;2024-03-23T03:19:56;100786.69;;;9.03;100.00
4449;BME280;2237;51.870;6.160;2024-03-23T03:22:22;100793.59;;;9.04;100.00
4449;BME280;2237;51.870;6.160;2024-03-23T03:24:48;100794.47;;;9.05;100.00
4449;BME280;2237;51.870;6.160;2024-03-23T03:27:13;100795.47;;;8.96;100.00
4449;BME280;2237;51.870;6.160;2024-03-23T03:29:39;100787.53;;;9.04;100.00
4449;BME280;2237;51.870;6.160;2024-03-23T03:32:05;100794.59;;;8.96;100.00
4449;BME280;2237;51.870;6.160;2024-03-23T03:34:30;100787.69;;;8.95;100.00
4449;BME280;2237;51.870;6.160;2024-03-23T03:36:57;100786.03;;;8.91;100.00
4449;BME280;2237;51.870;6.160;2024-03-23T03:39:24;100790.41;;;8.87;100.00
4449;BME280;2237;51.870;6.160;2024-03-23T03:41:49;100793.03;;;8.86;100.00
4449;BME280;2237;51.870;6.160;2024-03-23T03:44:16;100792.16;;;8.85;100.00
4449;BME280;2237;51.870;6.160;2024-03-23T03:46:42;100789.75;;;8.76;100.00
4449;BME280;2237;51.870;6.160;2024-03-23T03:49:08;100775.03;;;8.75;100.00
4449;BME280;2237;51.870;6.160;2024-03-23T03:51:34;100786.28;;;8.76;100.00
4449;BME280;2237;51.870;6.160;2024-03-23T03:53:59;100785.28;;;8.83;100.00
4449;BME280;2237;51.870;6.160;2024-03-23T03:56:25;100769.69;;;8.83;100.00
4449;BME280;2237;51.870;6.160;2024-03-23T03:58:51;100774.16;;;8.76;100.00
4449;BME280;2237;51.870;6.160;2024-03-23T04:01:16;100774.13;;;8.78;100.00
4449;BME280;2237;51.870;6.160;2024-03-23T04:03:43;100763.97;;;8.64;100.00
4449;BME280;2237;51.870;6.160;2024-03-23T04:06:18;100766.41;;;8.72;100.00
4449;BME280;2237;51.870;6.160;2024-03-23T04:08:44;100757.03;;;8.63;100.00
4449;BME280;2237;51.870;6.160;2024-03-23T04:11:09;100769.03;;;8.72;100.00
4449;BME280;2237;51.870;6.160;2024-03-23T04:13:35;100770.09;;;8.59;100.00
4449;BME280;2237;51.870;6.160;2024-03-23T04:16:00;100768.28;;;8.62;100.00
4449;BME280;2237;51.870;6.160;2024-03-23T04:18:26;100771.75;;;8.63;100.00
4449;BME280;2237;51.870;6.160;2024-03-23T04:20:51;100768.97;;;8.75;100.00
4449;BME280;2237;51.870;6.160;2024-03-23T04:23:17;100764.88;;;8.60;100.00
4449;BME280;2237;51.870;6.160;2024-03-23T04:25:43;100764.00;;;8.60;100.00
4449;BME280;2237;51.870;6.160;2024-03-23T04:28:08;100769.19;;;8.60;100.00
4449;BME280;2237;51.870;6.160;2024-03-23T04:30:34;100764.06;;;8.57;100.00
4449;BME280;2237;51.870;6.160;2024-03-23T04:32:59;100768.38;;;8.58;100.00
4449;BME280;2237;51.870;6.160;2024-03-23T04:35:26;100773.81;;;8.39;100.00
4449;BME280;2237;51.870;6.160;2024-03-23T04:37:53;100768.75;;;8.32;100.00
4449;BME280;2237;51.870;6.160;2024-03-23T04:40:19;100760.91;;;8.36;100.00
4449;BME280;2237;51.870;6.160;2024-03-23T04:42:44;100759.28;;;8.26;100.00
4449;BME280;2237;51.870;6.160;2024-03-23T04:45:10;100768.81;;;8.26;100.00
4449;BME280;2237;51.870;6.160;2024-03-23T04:47:38;100758.50;;;8.20;100.00
4449;BME280;2237;51.870;6.160;2024-03-23T04:50:04;100756.13;;;8.05;100.00
4449;BME280;2237;51.870;6.160;2024-03-23T04:52:30;100757.03;;;8.04;100.00
4449;BME280;2237;51.870;6.160;2024-03-23T04:54:56;100753.63;;;7.97;100.00
4449;BME280;2237;51.870;6.160;2024-03-23T04:57:22;100752.78;;;7.98;100.00
4449;BME280;2237;51.870;6.160;2024-03-23T04:59:48;100757.09;;;7.96;100.00
4449;BME280;2237;51.870;6.160;2024-03-23T05:02:14;100756.19;;;8.00;100.00
4449;BME280;2237;51.870;6.160;2024-03-23T05:04:40;100748.50;;;7.94;100.00
4449;BME280;2237;51.870;6.160;2024-03-23T05:07:06;100758.81;;;7.95;100.00
4449;BME280;2237;51.870;6.160;2024-03-23T05:09:32;100743.34;;;7.89;100.00
4449;BME280;2237;51.870;6.160;2024-03-23T05:11:59;100752.09;;;7.82;100.00
4449;BME280;2237;51.870;6.160;2024-03-23T05:14:26;100747.81;;;7.80;100.00
4449;BME280;2237;51.870;6.160;2024-03-23T05:16:52;100754.81;;;7.72;100.00
4449;BME280;2237;51.870;6.160;2024-03-23T05:19:18;100743.56;;;7.73;100.00
4449;BME280;2237;51.870;6.160;2024-03-23T05:21:44;100759.16;;;7.71;100.00
4449;BME280;2237;51.870;6.160;2024-03-23T05:24:09;100756.53;;;7.74;100.00
4449;BME280;2237;51.870;6.160;2024-03-23T05:26:35;100754.84;;;7.69;100.00
4449;BME280;2237;51.870;6.160;2024-03-23T05:29:02;100757.41;;;7.70;100.00
4449;BME280;2237;51.870;6.160;2024-03-23T05:31:29;100757.56;;;7.60;100.00
4449;BME280;2237;51.870;6.160;2024-03-23T05:33:55;100751.44;;;7.64;100.00
4449;BME280;2237;51.870;6.160;2024-03-23T05:36:21;100750.72;;;7.53;100.00
4449;BME280;2237;51.870;6.160;2024-03-23T05:38:47;100763.72;;;7.47;100.00
4449;BME280;2237;51.870;6.160;2024-03-23T05:41:13;100764.56;;;7.50;100.00
4449;BME280;2237;51.870;6.160;2024-03-23T05:43:40;100756.06;;;7.39;100.00
4449;BME280;2237;51.870;6.160;2024-03-23T05:46:05;100768.88;;;7.50;100.00
4449;BME280;2237;51.870;6.160;2024-03-23T05:48:31;100771.50;;;7.47;100.00
4449;BME280;2237;51.870;6.160;2024-03-23T05:50:57;100770.69;;;7.42;100.00
4449;BME280;2237;51.870;6.160;2024-03-23T05:53:23;100768.91;;;7.47;100.00
4449;BME280;2237;51.870;6.160;2024-03-23T05:55:50;100767.19;;;7.49;100.00
4449;BME280;2237;51.870;6.160;2024-03-23T05:58:17;100764.50;;;7.56;100.00
4449;BME280;2237;51.870;6.160;2024-03-23T06:00:43;100766.25;;;7.53;100.00
4449;BME280;2237;51.870;6.160;2024-03-23T06:03:09;100763.75;;;7.44;100.00
4449;BME280;2237;51.870;6.160;2024-03-23T06:05:36;100758.53;;;7.47;100.00
4449;BME280;2237;51.870;6.160;2024-03-23T06:08:02;100757.59;;;7.57;100.00
4449;BME280;2237;51.870;6.160;2024-03-23T06:10:27;100762.78;;;7.55;100.00
4449;BME280;2237;51.870;6.160;2024-03-23T06:12:53;100761.88;;;7.58;100.00
4449;BME280;2237;51.870;6.160;2024-03-23T06:15:19;100772.19;;;7.65;100.00
4449;BME280;2237;51.870;6.160;2024-03-23T06:17:45;100769.47;;;7.73;100.00
4449;BME280;2237;51.870;6.160;2024-03-23T06:20:10;100782.34;;;7.82;100.00
4449;BME280;2237;51.870;6.160;2024-03-23T06:22:36;100764.34;;;7.71;100.00
4449;BME280;2237;51.870;6.160;2024-03-23T06:25:02;100767.72;;;7.76;100.00
4449;BME280;2237;51.870;6.160;2024-03-23T06:27:28;100766.78;;;7.82;100.00
4449;BME280;2237;51.870;6.160;2024-03-23T06:29:54;100771.09;;;7.83;100.00
4449;BME280;2237;51.870;6.160;2024-03-23T06:32:20;100769.38;;;7.83;100.00
4449;BME280;2237;51.870;6.160;2024-03-23T06:34:46;100772.00;;;7.80;100.00
4449;BME280;2237;51.870;6.160;2024-03-23T06:37:11;100768.69;;;7.66;100.00
4449;BME280;2237;51.870;6.160;2024-03-23T06:39:38;100772.94;;;7.73;100.00
4449;BME280;2237;51.870;6.160;2024-03-23T06:42:04;100769.38;;;7.82;100.00
4449;BME280;2237;51.870;6.160;2024-03-23T06:44:30;100766.81;;;7.79;100.00
4449;BME280;2237;51.870;6.160;2024-03-23T06:46:56;100775.41;;;7.84;100.00
4449;BME280;2237;51.870;6.160;2024-03-23T06:49:22;100766.69;;;7.91;100.00
4449;BME280;2237;51.870;6.160;2024-03-23T06:51:48;100764.91;;;7.93;100.00
4449;BME280;2237;51.870;6.160;2024-03-23T06:54:14;100756.91;;;8.11;100.00
4449;BME280;2237;51.870;6.160;2024-03-23T06:56:40;100762.06;;;8.13;100.00
4449;BME280;2237;51.870;6.160;2024-03-23T06:59:06;100761.97;;;8.19;100.00
4449;BME280;2237;51.870;6.160;2024-03-23T07:01:32;100760.28;;;8.18;100.00
4449;BME280;2237;51.870;6.160;2024-03-23T07:03:57;100760.16;;;8.25;100.00
4449;BME280;2237;51.870;6.160;2024-03-23T07:06:23;100752.38;;;8.25;100.00
4449;BME280;2237;51.870;6.160;2024-03-23T07:08:48;100768.72;;;8.35;100.00
4449;BME280;2237;51.870;6.160;2024-03-23T07:11:24;100753.66;;;8.57;100.00
4449;BME280;2237;51.870;6.160;2024-03-23T07:13:51;100760.69;;;8.53;100.00
4449;BME280;2237;51.870;6.160;2024-03-23T07:16:16;100760.63;;;8.55;100.00
4449;BME280;2237;51.870;6.160;2024-03-23T07:18:42;100770.19;;;8.51;100.00
4449;BME280;2237;51.870;6.160;2024-03-23T07:21:07;100750.03;;;8.70;100.00
4449;BME280;2237;51.870;6.160;2024-03-23T07:23:33;100764.41;;;8.90;100.00
4449;BME280;2237;51.870;6.160;2024-03-23T07:26:01;100763.50;;;8.93;100.00
4449;BME280;2237;51.870;6.160;2024-03-23T07:28:27;100763.78;;;9.25;100.00
4449;BME280;2237;51.870;6.160;2024-03-23T07:31:12;100757.13;;;9.56;100.00
4449;BME280;2237;51.870;6.160;2024-03-23T07:33:46;100785.09;;;8.96;100.00
4449;BME280;2237;51.870;6.160;2024-03-23T07:36:12;100783.91;;;8.59;100.00
4449;BME280;2237;51.870;6.160;2024-03-23T07:38:42;100779.00;;;8.41;100.00
4449;BME280;2237;51.870;6.160;2024-03-23T07:41:09;100778.47;;;8.15;100.00
4449;BME280;2237;51.870;6.160;2024-03-23T07:43:36;100770.97;;;7.95;100.00
4449;BME280;2237;51.870;6.160;2024-03-23T07:46:02;100765.84;;;7.89;100.00
4449;BME280;2237;51.870;6.160;2024-03-23T07:48:29;100767.72;;;7.76;100.00
4449;BME280;2237;51.870;6.160;2024-03-23T07:51:06;100770.25;;;7.82;100.00
4449;BME280;2237;51.870;6.160;2024-03-23T07:53:32;100767.69;;;7.78;100.00
4449;BME280;2237;51.870;6.160;2024-03-23T07:56:00;100776.28;;;7.81;100.00
4449;BME280;2237;51.870;6.160;2024-03-23T07:58:26;100767.78;;;7.72;100.00
4449;BME280;2237;51.870;6.160;2024-03-23T08:00:56;100759.03;;;7.79;100.00
4449;BME280;2237;51.870;6.160;2024-03-23T08:03:22;100756.13;;;8.05;100.00
4449;BME280;2237;51.870;6.160;2024-03-23T08:05:48;100762.13;;;8.08;100.00
4449;BME280;2237;51.870;6.160;2024-03-23T08:08:14;100770.66;;;8.16;100.00
4449;BME280;2237;51.870;6.160;2024-03-23T08:10:50;100770.53;;;8.28;100.00
4449;BME280;2237;51.870;6.160;2024-03-23T08:13:15;100777.31;;;8.37;100.00
4449;BME280;2237;51.870;6.160;2024-03-23T08:15:41;100752.13;;;8.46;100.00
4449;BME280;2237;51.870;6.160;2024-03-23T08:18:07;100757.94;;;8.61;100.00
4449;BME280;2237;51.870;6.160;2024-03-23T08:20:32;100764.50;;;8.83;100.00
4449;BME280;2237;51.870;6.160;2024-03-23T08:22:58;100748.97;;;8.81;100.00
4449;BME280;2237;51.870;6.160;2024-03-23T08:25:24;100754.53;;;9.09;100.00
4449;BME280;2237;51.870;6.160;2024-03-23T08:27:49;100752.66;;;9.17;100.00
4449;BME280;2237;51.870;6.160;2024-03-23T08:30:15;100756.50;;;9.45;100.00
4449;BME280;2237;51.870;6.160;2024-03-23T08:32:41;100757.13;;;9.56;100.00
4449;BME280;2237;51.870;6.160;2024-03-23T08:35:08;100756.00;;;9.70;100.00
4449;BME280;2237;51.870;6.160;2024-03-23T08:37:33;100767.81;;;9.43;100.00
4449;BME280;2237;51.870;6.160;2024-03-23T08:39:59;100769.59;;;9.39;100.00
4449;BME280;2237;51.870;6.160;2024-03-23T08:42:25;100759.94;;;9.46;100.00
4449;BME280;2237;51.870;6.160;2024-03-23T08:44:50;100751.19;;;9.51;100.00
4449;BME280;2237;51.870;6.160;2024-03-23T08:47:17;100765.81;;;9.55;100.00
4449;BME280;2237;51.870;6.160;2024-03-23T08:49:44;100762.97;;;9.68;100.00
4449;BME280;2237;51.870;6.160;2024-03-23T08:52:09;100763.78;;;9.70;100.00
4449;BME280;2237;51.870;6.160;2024-03-23T08:54:35;100761.31;;;9.63;100.00
4449;BME280;2237;51.870;6.160;2024-03-23T08:57:01;100751.19;;;9.93;100.00
4449;BME280;2237;51.870;6.160;2024-03-23T08:59:26;100761.41;;;9.60;100.00
4449;BME280;2237;51.870;6.160;2024-03-23T09:01:52;100751.66;;;9.70;100.00
4449;BME280;2237;51.870;6.160;2024-03-23T09:04:18;100756.28;;;9.56;100.00
4449;BME280;2237;51.870;6.160;2024-03-23T09:06:44;100766.50;;;9.18;100.00
4449;BME280;2237;51.870;6.160;2024-03-23T09:09:10;100754.16;;;9.30;100.00
4449;BME280;2237;51.870;6.160;2024-03-23T09:11:35;100744.69;;;9.26;100.00
4449;BME280;2237;51.870;6.160;2024-03-23T09:14:01;100741.94;;;9.35;100.00
4449;BME280;2237;51.870;6.160;2024-03-23T09:16:26;100749.09;;;9.69;100.00
4449;BME280;2237;51.870;6.160;2024-03-23T09:18:52;100749.69;;;9.83;100.00
4449;BME280;2237;51.870;6.160;2024-03-23T09:21:18;100746.72;;;9.99;100.00
4449;BME280;2237;51.870;6.160;2024-03-23T09:23:44;100741.44;;;10.02;100.00
4449;BME280;2237;51.870;6.160;2024-03-23T09:26:10;100740.72;;;9.96;100.00
4449;BME280;2237;51.870;6.160;2024-03-23T09:28:36;100729.81;;;9.79;100.00
4449;BME280;2237;51.870;6.160;2024-03-23T09:31:05;100743.97;;;9.64;100.00
4449;BME280;2237;51.870;6.160;2024-03-23T09:33:31;100738.81;;;9.62;100.00
4449;BME280;2237;51.870;6.160;2024-03-23T09:36:03;100738.94;;;9.55;100.00
4449;BME280;2237;51.870;6.160;2024-03-23T09:38:29;100739.75;;;9.58;100.00
4449;BME280;2237;51.870;6.160;2024-03-23T09:40:55;100726.50;;;9.71;100.00
4449;BME280;2237;51.870;6.160;2024-03-23T09:43:20;100744.88;;;9.63;100.00
4449;BME280;2237;51.870;6.160;2024-03-23T09:45:46;100743.38;;;9.51;100.00
4449;BME280;2237;51.870;6.160;2024-03-23T09:48:12;100743.59;;;9.39;100.00
4449;BME280;2237;51.870;6.160;2024-03-23T09:50:38;100739.94;;;9.49;100.00
4449;BME280;2237;51.870;6.160;2024-03-23T09:53:06;100733.50;;;9.69;100.00
4449;BME280;2237;51.870;6.160;2024-03-23T09:55:32;100736.56;;;9.87;100.00
4449;BME280;2237;51.870;6.160;2024-03-23T09:57:57;100735.09;;;10.17;100.00
4449;BME280;2237;51.870;6.160;2024-03-23T10:00:23;100738.03;;;10.40;100.00
4449;BME280;2237;51.870;6.160;2024-03-23T10:02:49;100734.97;;;10.21;100.00
4449;BME280;2237;51.870;6.160;2024-03-23T10:05:21;100740.16;;;10.61;100.00
4449;BME280;2237;51.870;6.160;2024-03-23T10:07:50;100732.06;;;10.72;100.00
4449;BME280;2237;51.870;6.160;2024-03-23T10:10:16;100738.34;;;10.65;100.00
4449;BME280;2237;51.870;6.160;2024-03-23T10:12:46;100749.56;;;10.67;100.00
4449;BME280;2237;51.870;6.160;2024-03-23T10:15:24;100751.91;;;10.77;100.00
4449;BME280;2237;51.870;6.160;2024-03-23T10:17:50;100736.19;;;10.05;100.00
4449;BME280;2237;51.870;6.160;2024-03-23T10:20:22;100729.59;;;9.89;100.00
4449;BME280;2237;51.870;6.160;2024-03-23T10:22:49;100740.28;;;9.76;100.00
4449;BME280;2237;51.870;6.160;2024-03-23T10:25:17;100724.31;;;9.51;100.00
4449;BME280;2237;51.870;6.160;2024-03-23T10:27:43;100734.34;;;9.23;100.00
4449;BME280;2237;51.870;6.160;2024-03-23T10:30:09;100734.06;;;9.40;100.00
4449;BME280;2237;51.870;6.160;2024-03-23T10:32:35;100726.75;;;9.60;100.00
4449;BME280;2237;51.870;6.160;2024-03-23T10:35:17;100722.91;;;9.78;100.00
4449;BME280;2237;51.870;6.160;2024-03-23T10:37:49;100741.69;;;9.92;100.00
4449;BME280;2237;51.870;6.160;2024-03-23T10:40:17;100727.38;;;9.71;100.00
4449;BME280;2237;51.870;6.160;2024-03-23T10:42:44;100729.75;;;9.82;100.00
4449;BME280;2237;51.870;6.160;2024-03-23T10:45:10;100735.38;;;10.02;100.00
4449;BME280;2237;51.870;6.160;2024-03-23T10:47:37;100732.75;;;10.43;100.00
4449;BME280;2237;51.870;6.160;2024-03-23T10:50:06;100735.75;;;10.97;100.00
4449;BME280;2237;51.870;6.160;2024-03-23T10:52:35;100772.63;;;10.45;100.00
4449;BME280;2237;51.870;6.160;2024-03-23T10:55:05;100767.72;;;8.97;100.00
4449;BME280;2237;51.870;6.160;2024-03-23T10:57:41;100747.63;;;8.58;100.00
4449;BME280;2237;51.870;6.160;2024-03-23T11:00:08;100748.13;;;8.20;100.00
4449;BME280;2237;51.870;6.160;2024-03-23T11:02:35;100742.22;;;8.10;100.00
4449;BME280;2237;51.870;6.160;2024-03-23T11:05:01;100730.84;;;8.19;100.00
4449;BME280;2237;51.870;6.160;2024-03-23T11:09:55;100725.28;;;8.46;100.00
4449;BME280;2237;51.870;6.160;2024-03-23T11:14:47;100721.13;;;8.89;100.00
4449;BME280;2237;51.870;6.160;2024-03-23T11:17:21;100701.25;;;8.87;100.00
4449;BME280;2237;51.870;6.160;2024-03-23T11:20:13;100704.16;;;9.18;100.00
4449;BME280;2237;51.870;6.160;2024-03-23T11:22:45;100712.66;;;9.27;100.00
4449;BME280;2237;51.870;6.160;2024-03-23T11:25:25;100703.66;;;9.43;100.00
4449;BME280;2237;51.870;6.160;2024-03-23T11:27:55;100702.94;;;9.78;100.00
4449;BME280;2237;51.870;6.160;2024-03-23T11:32:57;100709.63;;;10.66;100.00
4449;BME280;2237;51.870;6.160;2024-03-23T11:35:29;100692.47;;;10.92;100.00
4449;BME280;2237;51.870;6.160;2024-03-23T11:38:11;100693.19;;;10.98;100.00
4449;BME280;2237;51.870;6.160;2024-03-23T11:40:38;100676.66;;;11.31;100.00
4449;BME280;2237;51.870;6.160;2024-03-23T11:43:07;100706.69;;;11.14;100.00
4449;BME280;2237;51.870;6.160;2024-03-23T11:45:37;100685.84;;;10.80;100.00
4449;BME280;2237;51.870;6.160;2024-03-23T11:48:05;100702.41;;;10.77;100.00
4449;BME280;2237;51.870;6.160;2024-03-23T11:50:30;100680.28;;;10.94;100.00
4449;BME280;2237;51.870;6.160;2024-03-23T11:55:43;100687.59;;;11.12;93.38
4449;BME280;2237;51.870;6.160;2024-03-23T11:58:10;100689.94;;;11.53;95.77
4449;BME280;2237;51.870;6.160;2024-03-23T12:00:35;100690.03;;;11.50;90.83
4449;BME280;2237;51.870;6.160;2024-03-23T12:03:05;100692.97;;;11.38;96.44
4449;BME280;2237;51.870;6.160;2024-03-23T12:05:32;100683.25;;;11.12;98.84
4449;BME280;2237;51.870;6.160;2024-03-23T12:10:44;100719.78;;;10.42;93.33
4449;BME280;2237;51.870;6.160;2024-03-23T12:13:11;100712.66;;;10.10;99.02
4449;BME280;2237;51.870;6.160;2024-03-23T12:15:36;100717.84;;;10.10;100.00
4449;BME280;2237;51.870;6.160;2024-03-23T12:18:08;100713.06;;;9.92;100.00
4449;BME280;2237;51.870;6.160;2024-03-23T12:20:34;100705.94;;;10.00;100.00
4449;BME280;2237;51.870;6.160;2024-03-23T12:23:12;100706.63;;;10.09;100.00
4449;BME280;2237;51.870;6.160;2024-03-23T12:25:39;100717.75;;;10.17;100.00
4449;BME280;2237;51.870;6.160;2024-03-23T12:28:05;100717.78;;;10.53;100.00
4449;BME280;2237;51.870;6.160;2024-03-23T12:30:39;100709.72;;;11.29;100.00
4449;BME280;2237;51.870;6.160;2024-03-23T12:33:05;100713.88;;;11.37;100.00
4449;BME280;2237;51.870;6.160;2024-03-23T12:35:31;100690.34;;;11.38;100.00
4449;BME280;2237;51.870;6.160;2024-03-23T12:37:57;100698.13;;;11.72;99.23
4449;BME280;2237;51.870;6.160;2024-03-23T12:40:23;100681.34;;;11.80;100.00
4449;BME280;2237;51.870;6.160;2024-03-23T12:42:49;100695.53;;;11.40;97.91
4449;BME280;2237;51.870;6.160;2024-03-23T12:45:14;100697.91;;;10.83;89.37
4449;BME280;2237;51.870;6.160;2024-03-23T12:47:40;100700.09;;;10.65;92.24
4449;BME280;2237;51.870;6.160;2024-03-23T12:50:06;100686.91;;;10.71;89.00
4449;BME280;2237;51.870;6.160;2024-03-23T12:52:32;100689.00;;;10.93;88.84
4449;BME280;2237;51.870;6.160;2024-03-23T12:54:58;100676.00;;;11.54;84.99
4449;BME280;2237;51.870;6.160;2024-03-23T12:57:25;100669.91;;;11.84;80.98
4449;BME280;2237;51.870;6.160;2024-03-23T12:59:54;100662.72;;;12.20;82.85
4449;BME280;2237;51.870;6.160;2024-03-23T13:02:20;100670.66;;;12.43;83.24
4449;BME280;2237;51.870;6.160;2024-03-23T13:04:49;100679.94;;;12.26;85.42
4449;BME280;2237;51.870;6.160;2024-03-23T13:07:15;100663.66;;;11.90;86.36
4449;BME280;2237;51.870;6.160;2024-03-23T13:09:40;100649.81;;;12.16;90.08
4449;BME280;2237;51.870;6.160;2024-03-23T13:12:06;100652.94;;;12.27;81.97
4449;BME280;2237;51.870;6.160;2024-03-23T13:14:32;100649.50;;;12.51;76.72
4449;BME280;2237;51.870;6.160;2024-03-23T13:16:57;100654.72;;;12.77;79.30
4449;BME280;2237;51.870;6.160;2024-03-23T13:19:23;100659.31;;;12.44;74.15
4449;BME280;2237;51.870;6.160;2024-03-23T13:21:55;100647.16;;;12.70;79.64
4449;BME280;2237;51.870;6.160;2024-03-23T13:24:27;100646.09;;;12.23;68.36
4449;BME280;2237;51.870;6.160;2024-03-23T13:26:55;100642.91;;;12.66;67.15
4449;BME280;2237;51.870;6.160;2024-03-23T13:29:21;100636.31;;;12.56;60.20
4449;BME280;2237;51.870;6.160;2024-03-23T13:31:51;100644.72;;;12.65;61.52
4449;BME280;2237;51.870;6.160;2024-03-23T13:34:18;100642.63;;;12.99;58.24
4449;BME280;2237;51.870;6.160;2024-03-23T13:36:47;100642.69;;;12.98;64.20
4449;BME280;2237;51.870;6.160;2024-03-23T13:39:13;100638.91;;;12.82;63.20
4449;BME280;2237;51.870;6.160;2024-03-23T13:44:08;100656.16;;;11.18;61.34
4449;BME280;2237;51.870;6.160;2024-03-23T13:46:37;100641.09;;;11.58;64.03
4449;BME280;2237;51.870;6.160;2024-03-23T13:49:04;100647.31;;;12.65;57.87
4449;BME280;2237;51.870;6.160;2024-03-23T13:51:30;100651.88;;;12.05;63.40
4449;BME280;2237;51.870;6.160;2024-03-23T13:53:56;100664.84;;;12.08;68.30
4449;BME280;2237;51.870;6.160;2024-03-23T13:56:22;100683.41;;;12.26;74.80
4449;BME280;2237;51.870;6.160;2024-03-23T13:58:48;100658.31;;;17.03;50.59
4449;BME280;2237;51.870;6.160;2024-03-23T14:01:15;100651.38;;;22.80;36.79
4449;BME280;2237;51.870;6.160;2024-03-23T14:03:41;100652.38;;;25.49;31.23
4449;BME280;2237;51.870;6.160;2024-03-23T14:06:08;100653.47;;;27.13;28.69
4449;BME280;2237;51.870;6.160;2024-03-23T14:08:37;100656.31;;;26.63;28.39
4449;BME280;2237;51.870;6.160;2024-03-23T14:11:07;100647.09;;;24.01;31.55
4449;BME280;2237;51.870;6.160;2024-03-23T14:13:37;100650.13;;;26.82;27.30
4449;BME280;2237;51.870;6.160;2024-03-23T14:16:03;100648.44;;;26.71;26.36
4449;BME280;2237;51.870;6.160;2024-03-23T14:18:29;100666.69;;;20.26;34.39